createdAt,value
2017-09-20T00:00:57.372Z,98.18
2017-09-20T00:01:57.267Z,98.27
2017-09-20T00:02:56.947Z,98.56
2017-09-20T00:03:56.939Z,98.46
2017-09-20T00:04:57.246Z,98.75
2017-09-20T00:05:57.241Z,98.65
2017-09-20T00:06:56.922Z,98.46
2017-09-20T00:07:56.917Z,98.46
2017-09-20T00:08:57.222Z,98.46
2017-09-20T00:09:56.905Z,98.46
2017-09-20T00:10:56.896Z,98.27
2017-09-20T00:11:56.892Z,98.65
2017-09-20T00:12:57.197Z,98.36
2017-09-20T00:13:56.878Z,98.65
2017-09-20T00:14:56.873Z,97.8
2017-09-20T00:15:56.865Z,98.18
2017-09-20T00:16:57.169Z,98.27
2017-09-20T00:17:57.168Z,98.08
2017-09-20T00:18:57.158Z,98.36
2017-09-20T00:19:57.252Z,98.36
2017-09-20T00:20:57.149Z,98.36
2017-09-20T00:21:56.829Z,98.46
2017-09-20T00:22:57.138Z,98.27
2017-09-20T00:23:57.126Z,98.75
2017-09-20T00:24:57.122Z,98.56
2017-09-20T00:25:57.117Z,98.65
2017-09-20T00:26:56.799Z,98.08
2017-09-20T00:27:57.203Z,98.85
2017-09-20T00:28:56.789Z,98.75
2017-09-20T00:29:57.088Z,98.65
2017-09-20T00:30:56.773Z,98.08
2017-09-20T00:31:56.769Z,98.08
2017-09-20T00:32:57.172Z,98.08
2017-09-20T00:33:56.757Z,98.65
2017-09-20T00:34:56.749Z,98.46
2017-09-20T00:35:57.055Z,98.46
2017-09-20T00:36:56.836Z,98.65
2017-09-20T00:37:57.043Z,98.65
2017-09-20T00:38:56.725Z,98.56
2017-09-20T00:39:57.033Z,98.46
2017-09-20T00:40:56.711Z,98.46
2017-09-20T00:41:57.015Z,98.56
2017-09-20T00:42:57.008Z,98.56
2017-09-20T00:43:56.692Z,98.46
2017-09-20T00:44:56.998Z,98.65
2017-09-20T00:45:56.991Z,98.46
2017-09-20T00:46:56.675Z,98.36
2017-09-20T00:47:57.081Z,98.46
2017-09-20T00:48:56.975Z,98.46
2017-09-20T00:49:56.968Z,98.65
2017-09-20T00:50:56.961Z,98.08
2017-09-20T00:51:56.644Z,98.46
2017-09-20T00:52:56.948Z,98.18
2017-09-20T00:53:56.631Z,98.27
2017-09-20T00:54:56.640Z,98.27
2017-09-20T00:55:56.716Z,97.99
2017-09-20T00:56:56.610Z,98.46
2017-09-20T00:57:56.917Z,98.46
2017-09-20T00:58:56.908Z,98.46
2017-09-20T00:59:56.694Z,97.99
2017-09-20T01:00:56.588Z,98.46
2017-09-20T01:01:56.581Z,98.46
2017-09-20T01:02:56.886Z,98.36
2017-09-20T01:03:56.880Z,98.36
2017-09-20T01:04:56.561Z,98.46
2017-09-20T01:05:56.554Z,97.99
2017-09-20T01:06:56.549Z,98.46
2017-09-20T01:07:56.643Z,98.56
2017-09-20T01:08:56.847Z,98.85
2017-09-20T01:09:56.531Z,98.27
2017-09-20T01:10:56.523Z,98.27
2017-09-20T01:11:56.830Z,98.75
2017-09-20T02:20:51.383Z,98.65
2017-09-20T02:21:51.378Z,98.79
2017-09-20T02:22:51.683Z,99.22
2017-09-20T02:23:51.365Z,98.85
2017-09-20T02:24:51.670Z,98.6
2017-09-20T02:25:51.386Z,98.65
2017-09-20T02:26:51.656Z,98.7
2017-09-20T02:27:51.650Z,98.85
2017-09-20T02:28:51.334Z,98.65
2017-09-20T02:29:51.326Z,98.46
2017-09-20T02:30:51.642Z,98.65
2017-09-20T02:31:51.312Z,98.65
2017-09-20T02:32:51.307Z,99.32
2017-09-20T02:33:51.613Z,98.65
2017-09-20T02:34:51.606Z,98.85
2017-09-20T02:35:51.393Z,98.85
2017-09-20T02:36:51.599Z,99.04
2017-09-20T02:37:51.590Z,98.85
2017-09-20T02:38:51.584Z,99.13
2017-09-20T02:39:51.365Z,98.65
2017-09-20T02:40:51.569Z,98.65
2017-09-20T02:41:51.564Z,98.56
2017-09-20T02:42:51.557Z,98.75
2017-09-20T02:43:51.553Z,98.75
2017-09-20T02:44:51.237Z,98.85
2017-09-20T02:45:51.326Z,98.75
2017-09-20T02:46:51.220Z,98.65
2017-09-20T02:47:51.723Z,98.08
2017-09-20T02:48:51.520Z,98.65
2017-09-20T02:49:51.199Z,98.85
2017-09-20T02:50:51.503Z,98.75
2017-09-20T02:51:51.501Z,98.85
2017-09-20T02:52:51.496Z,99.04
2017-09-20T02:53:51.487Z,98.65
2017-09-20T02:54:51.170Z,98.65
2017-09-20T02:55:51.575Z,98.27
2017-09-20T02:56:51.158Z,98.56
2017-09-20T02:57:51.462Z,99.04
2017-09-20T02:58:51.453Z,98.46
2017-09-20T02:59:51.139Z,98.65
2017-09-20T03:00:51.544Z,98.85
2017-09-20T03:01:51.436Z,98.75
2017-09-20T03:02:51.430Z,99.04
2017-09-20T03:03:51.424Z,98.65
2017-09-20T03:04:51.417Z,98.85
2017-09-20T03:05:51.099Z,98.85
2017-09-20T03:06:51.507Z,98.46
2017-09-20T03:07:51.085Z,98.65
2017-09-20T03:08:51.081Z,99.04
2017-09-20T03:09:51.387Z,98.27
2017-09-20T03:10:51.067Z,99.04
2017-09-20T03:11:51.060Z,98.6
2017-09-20T03:12:51.055Z,98.36
2017-09-20T03:13:51.048Z,99.27
2017-09-20T03:14:51.044Z,99.27
2017-09-20T03:15:51.036Z,99.18
2017-09-20T03:16:51.442Z,99.04
2017-09-20T03:17:51.124Z,99.18
2017-09-20T03:18:51.017Z,98.7
2017-09-20T03:19:51.320Z,98.7
2017-09-20T03:20:51.006Z,98.7
2017-09-20T03:21:50.997Z,98.41
2017-09-20T03:22:51.407Z,98.89
2017-09-20T03:23:50.987Z,98.99
2017-09-20T03:24:50.979Z,99.18
2017-09-20T03:25:50.973Z,99.18
2017-09-20T03:26:51.377Z,98.99
2017-09-20T03:27:51.272Z,98.99
2017-09-20T03:28:51.267Z,99.08
2017-09-20T03:29:50.948Z,98.89
2017-09-20T03:30:51.263Z,98.89
2017-09-20T03:31:51.244Z,98.99
2017-09-20T03:32:50.929Z,99.08
2017-09-20T03:33:51.240Z,99.08
2017-09-20T03:34:51.226Z,99.27
2017-09-20T03:35:51.221Z,99.27
2017-09-20T03:36:51.215Z,99.84
2017-09-20T03:37:51.308Z,99.55
2017-09-20T03:38:50.890Z,99.84
2017-09-20T03:39:51.195Z,99.46
2017-09-20T03:40:51.187Z,99.75
2017-09-20T03:41:51.181Z,99.65
2017-09-20T03:42:51.179Z,99.55
2017-09-20T03:43:51.272Z,99.65
2017-09-20T03:44:50.853Z,99.75
2017-09-20T03:45:51.157Z,99.84
2017-09-20T03:46:51.152Z,98.79
2017-09-20T03:47:51.147Z,99.18
2017-09-20T03:48:51.139Z,99.37
2017-09-20T03:49:50.818Z,99.37
2017-09-20T03:50:51.125Z,99.84
2017-09-20T03:51:50.807Z,98.89
2017-09-20T03:52:51.114Z,99.37
2017-09-20T03:53:51.108Z,99.22
2017-09-20T03:54:51.300Z,99.04
2017-09-20T03:55:50.782Z,98.99
2017-09-20T03:56:50.777Z,99.7
2017-09-20T03:57:51.079Z,99.75
2017-09-20T03:58:51.075Z,99.8
2017-09-20T03:59:51.070Z,99.8
2017-09-20T04:00:50.751Z,99.7
2017-09-20T04:01:50.744Z,99.89
2017-09-20T04:02:50.737Z,99.04
2017-09-20T04:03:50.731Z,99.13
2017-09-20T04:04:50.724Z,99.22
2017-09-20T04:05:50.918Z,99.32
2017-09-20T04:06:50.712Z,99.89
2017-09-20T04:07:50.706Z,98.65
2017-09-20T04:08:51.013Z,98.94
2017-09-20T04:09:51.004Z,98.85
2017-09-20T04:10:50.687Z,98.85
2017-09-20T04:11:50.682Z,99.04
2017-09-20T04:12:50.988Z,98.85
2017-09-20T04:13:50.668Z,99.22
2017-09-20T04:14:50.973Z,98.7
2017-09-20T04:15:50.968Z,98.94
2017-09-20T04:16:50.750Z,98.89
2017-09-20T04:17:50.643Z,98.65
2017-09-20T04:18:50.637Z,99.27
2017-09-20T04:19:50.945Z,99.27
2017-09-20T04:20:50.936Z,99.84
2017-09-20T04:21:50.929Z,99.75
2017-09-20T04:22:50.613Z,99.84
2017-09-20T04:23:50.606Z,99.65
2017-09-20T04:24:50.599Z,99.46
2017-09-20T04:25:50.593Z,99.65
2017-09-20T04:26:50.897Z,99.46
2017-09-20T04:27:50.581Z,99.46
2017-09-20T04:28:50.573Z,99.75
2017-09-20T04:29:50.879Z,99.99
2017-09-20T04:30:50.561Z,99.7
2017-09-20T04:31:50.557Z,99.65
2017-09-20T04:32:50.548Z,99.8
2017-09-20T04:33:50.540Z,99.51
2017-09-20T04:34:50.849Z,99.75
2017-09-20T04:35:50.846Z,99.7
2017-09-20T04:36:50.522Z,99.7
2017-09-20T04:37:50.827Z,99.89
2017-09-20T04:38:50.820Z,99.8
2017-09-20T04:39:50.814Z,98.94
2017-09-20T04:40:50.907Z,99.04
2017-09-20T04:41:50.802Z,98.94
2017-09-20T04:42:50.795Z,99.22
2017-09-20T04:43:50.788Z,99.22
2017-09-20T04:44:50.786Z,99.13
2017-09-20T04:45:50.465Z,99.13
2017-09-20T04:46:50.768Z,99.51
2017-09-20T04:47:50.863Z,99.22
2017-09-20T04:48:50.447Z,99.22
2017-09-20T04:49:50.752Z,98.94
2017-09-20T04:50:50.745Z,98.94
2017-09-20T04:51:50.840Z,99.04
2017-09-20T04:52:50.884Z,98.94
2017-09-20T04:53:50.726Z,99.13
2017-09-20T04:54:50.408Z,99.13
2017-09-20T04:55:50.402Z,98.75
2017-09-20T04:56:50.706Z,99.41
2017-09-20T04:57:50.799Z,99.32
2017-09-20T04:58:50.693Z,99.32
2017-09-20T04:59:50.686Z,98.94
2017-09-20T05:00:50.681Z,99.32
2017-09-20T05:01:50.363Z,98.85
2017-09-20T05:02:50.669Z,98.56
2017-09-20T05:03:50.663Z,98.65
2017-09-20T05:04:50.655Z,98.65
2017-09-20T05:05:50.339Z,98.75
2017-09-20T05:06:50.643Z,98.75
2017-09-20T05:07:50.637Z,99.04
2017-09-20T05:08:50.629Z,98.6
2017-09-20T05:09:50.313Z,98.46
2017-09-20T05:10:50.304Z,99.22
2017-09-20T05:11:50.302Z,98.75
2017-09-20T05:12:50.604Z,98.94
2017-09-20T05:13:50.597Z,98.89
2017-09-20T05:14:50.596Z,99.08
2017-09-20T05:15:50.272Z,98.94
2017-09-20T05:16:50.580Z,98.94
2017-09-20T05:17:50.575Z,98.94
2017-09-20T05:18:50.256Z,98.79
2017-09-20T05:19:50.658Z,98.85
2017-09-20T05:20:50.552Z,98.85
2017-09-20T05:21:50.235Z,98.94
2017-09-20T05:22:50.541Z,98.99
2017-09-20T05:23:50.222Z,98.46
2017-09-20T05:24:50.317Z,98.56
2017-09-20T05:25:50.523Z,98.56
2017-09-20T05:26:50.204Z,98.46
2017-09-20T05:27:50.199Z,98.18
2017-09-20T05:28:50.501Z,98.27
2017-09-20T05:29:50.186Z,98.56
2017-09-20T05:30:50.487Z,98.27
2017-09-20T05:31:50.171Z,98.46
2017-09-20T05:32:50.480Z,98.46
2017-09-20T05:33:50.472Z,98.56
2017-09-20T05:34:50.151Z,98.94
2017-09-20T05:35:50.147Z,99.04
2017-09-20T05:36:50.140Z,99.04
2017-09-20T05:37:50.133Z,98.75
2017-09-20T05:38:50.127Z,98.36
2017-09-20T05:39:50.221Z,98.65
2017-09-20T05:40:50.115Z,98.65
2017-09-20T05:41:50.108Z,98.56
2017-09-20T05:42:50.102Z,99.22
2017-09-20T05:43:50.095Z,98.65
2017-09-20T05:44:50.088Z,98.75
2017-09-20T05:45:50.400Z,98.85
2017-09-20T05:46:50.227Z,98.85
2017-09-20T05:47:50.383Z,98.85
2017-09-20T05:48:50.375Z,98.36
2017-09-20T05:49:50.368Z,97.99
2017-09-20T05:50:50.052Z,98.65
2017-09-20T05:51:50.047Z,98.36
2017-09-20T05:52:50.039Z,98.18
2017-09-20T05:53:50.031Z,98.46
2017-09-20T05:54:50.026Z,98.56
2017-09-20T05:55:50.331Z,98.65
2017-09-20T05:56:50.424Z,98.36
2017-09-20T05:57:50.008Z,98.65
2017-09-20T05:58:50.002Z,98.08
2017-09-20T05:59:50.411Z,98.46
2017-09-20T06:00:50.308Z,98.56
2017-09-20T06:01:49.985Z,98.46
2017-09-20T06:02:50.296Z,98.75
2017-09-20T06:03:50.284Z,98.75
2017-09-20T06:04:50.280Z,99.32
2017-09-20T06:05:50.313Z,98.65
2017-09-20T06:06:50.268Z,99.04
2017-09-20T06:07:50.363Z,98.75
2017-09-20T06:08:50.253Z,99.04
2017-09-20T06:09:50.257Z,98.85
2017-09-20T06:10:50.240Z,99.04
2017-09-20T06:11:50.337Z,99.22
2017-09-20T06:12:50.229Z,99.32
2017-09-20T06:13:49.912Z,98.75
2017-09-20T06:14:50.223Z,99.04
2017-09-20T06:15:50.210Z,99.04
2017-09-20T06:16:49.891Z,99.04
2017-09-20T06:17:50.198Z,98.85
2017-09-20T06:18:49.977Z,98.56
2017-09-20T06:19:49.872Z,98.36
2017-09-20T06:20:50.178Z,98.27
2017-09-20T06:21:50.173Z,98.46
2017-09-20T06:22:50.164Z,98.46
2017-09-20T06:23:49.846Z,99.04
2017-09-20T06:24:50.191Z,98.85
2017-09-20T06:25:50.180Z,98.65
2017-09-20T06:26:50.140Z,98.36
2017-09-20T06:27:50.134Z,98.36
2017-09-20T06:28:50.228Z,98.36
2017-09-20T06:29:50.120Z,98.27
2017-09-20T06:30:49.804Z,98.46
2017-09-20T06:31:50.110Z,98.36
2017-09-20T06:32:50.102Z,98.36
2017-09-20T06:33:50.096Z,98.56
2017-09-20T06:34:50.087Z,98.56
2017-09-20T06:35:50.085Z,98.46
2017-09-20T06:36:50.076Z,98.65
2017-09-20T06:37:50.075Z,98.65
2017-09-20T06:38:49.758Z,98.56
2017-09-20T06:39:50.056Z,98.08
2017-09-20T06:40:50.050Z,98.18
2017-09-20T06:41:50.046Z,98.36
2017-09-20T06:42:49.727Z,98.46
2017-09-20T06:43:50.040Z,98.18
2017-09-20T06:44:50.037Z,98.56
2017-09-20T06:45:50.022Z,98.85
2017-09-20T06:46:50.020Z,98.56
2017-09-20T06:47:49.696Z,98.08
2017-09-20T06:48:49.690Z,98.36
2017-09-20T06:49:50.001Z,98.46
2017-09-20T06:50:50.124Z,98.56
2017-09-20T06:51:49.671Z,98.18
2017-09-20T06:52:49.979Z,98.36
2017-09-20T06:53:49.975Z,98.18
2017-09-20T06:54:49.966Z,98.08
2017-09-20T06:55:49.961Z,98.56
2017-09-20T06:56:49.957Z,98.65
2017-09-20T06:57:49.948Z,98.56
2017-09-20T06:58:49.629Z,98.56
2017-09-20T06:59:49.620Z,98.36
2017-09-20T07:00:49.928Z,98.36
2017-09-20T07:01:49.609Z,98.46
2017-09-20T07:02:49.915Z,98.46
2017-09-20T07:03:50.014Z,98.65
2017-09-20T07:04:49.592Z,98.46
2017-09-20T07:05:49.897Z,98.65
2017-09-20T07:06:49.889Z,98.65
2017-09-20T07:07:49.889Z,98.36
2017-09-20T07:08:49.564Z,98.36
2017-09-20T07:09:49.559Z,97.8
2017-09-20T07:10:49.871Z,97.7
2017-09-20T07:11:49.862Z,97.7
2017-09-20T07:12:49.853Z,98.18
2017-09-20T07:13:49.844Z,97.89
2017-09-20T07:14:49.946Z,98.08
2017-09-20T07:15:49.833Z,97.99
2017-09-20T07:16:49.613Z,97.99
2017-09-20T07:17:49.819Z,97.89
2017-09-20T07:18:49.499Z,97.8
2017-09-20T07:19:49.809Z,98.36
2017-09-20T07:20:49.803Z,98.27
2017-09-20T07:21:49.483Z,98.56
2017-09-20T07:22:49.477Z,98.46
2017-09-20T07:23:49.469Z,98.46
2017-09-20T07:24:49.461Z,98.46
2017-09-20T07:25:49.802Z,98.56
2017-09-20T07:26:49.763Z,98.56
2017-09-20T07:27:49.444Z,98.61
2017-09-20T07:28:49.440Z,98.18
2017-09-20T07:29:49.431Z,98.51
2017-09-20T07:30:49.424Z,97.94
2017-09-20T07:31:49.517Z,97.94
2017-09-20T07:32:49.726Z,98.03
2017-09-20T07:33:49.408Z,98.32
2017-09-20T07:34:49.398Z,97.46
2017-09-20T07:35:49.708Z,98.03
2017-09-20T07:36:49.703Z,97.66
2017-09-20T07:37:49.693Z,97.66
2017-09-20T07:38:49.374Z,97.08
2017-09-20T07:39:49.683Z,97.37
2017-09-20T07:40:49.676Z,97.27
2017-09-20T07:41:49.353Z,97.17
2017-09-20T07:42:49.661Z,97.27
2017-09-20T07:43:49.342Z,97.17
2017-09-20T07:44:49.473Z,97.46
2017-09-20T07:45:49.330Z,97.17
2017-09-20T07:46:49.323Z,97.46
2017-09-20T07:47:49.316Z,97.37
2017-09-20T07:48:49.625Z,96.61
2017-09-20T07:49:49.622Z,96.89
2017-09-20T07:50:49.299Z,96.61
2017-09-20T07:51:49.290Z,96.51
2017-09-20T07:52:49.605Z,96.41
2017-09-20T07:53:49.280Z,96.7
2017-09-20T07:54:49.272Z,96.22
2017-09-20T07:55:49.268Z,96.41
2017-09-20T07:56:49.258Z,96.13
2017-09-20T07:57:49.567Z,96.41
2017-09-20T07:58:49.665Z,95.27
2017-09-20T07:59:49.555Z,95.32
2017-09-20T08:00:49.336Z,95.61
2017-09-20T08:01:49.227Z,94.84
2017-09-20T08:02:49.221Z,94.17
2017-09-20T08:03:49.315Z,94.17
2017-09-20T08:04:49.525Z,94.74
2017-09-20T08:05:49.622Z,94.56
2017-09-20T08:06:49.196Z,94.07
2017-09-20T08:07:49.510Z,94.07
2017-09-20T08:08:49.501Z,94.07
2017-09-20T08:09:49.178Z,94.17
2017-09-20T08:10:49.172Z,93.12
2017-09-20T08:11:49.166Z,93.31
2017-09-20T08:12:49.476Z,93.12
2017-09-20T08:13:49.466Z,92.93
2017-09-20T08:14:49.662Z,92.83
2017-09-20T08:15:49.604Z,91.93
2017-09-20T08:16:49.133Z,90.64
2017-09-20T08:17:49.541Z,89.92
2017-09-20T08:18:49.437Z,90.26
2017-09-20T08:19:49.429Z,89.78
2017-09-20T08:20:49.110Z,90.36
2017-09-20T08:21:49.103Z,90.36
2017-09-20T08:22:49.097Z,90.64
2017-09-20T08:23:49.091Z,89.78
2017-09-20T08:24:49.401Z,89.78
2017-09-20T08:25:49.392Z,89.59
2017-09-20T08:26:49.389Z,89.59
2017-09-20T08:27:49.067Z,88.92
2017-09-20T08:28:49.059Z,88.92
2017-09-20T08:29:49.368Z,89.06
2017-09-20T08:30:49.361Z,89.54
2017-09-20T08:31:49.355Z,89.45
2017-09-20T08:32:49.349Z,88.59
2017-09-20T08:33:49.129Z,88.97
2017-09-20T08:34:49.022Z,88.64
2017-09-20T08:35:49.018Z,88.87
2017-09-20T08:36:49.010Z,88.54
2017-09-20T08:37:49.004Z,88.73
2017-09-20T08:38:48.999Z,89.12
2017-09-20T08:39:49.304Z,88.54
2017-09-20T08:40:49.301Z,88.59
2017-09-20T08:41:49.292Z,88.97
2017-09-20T08:42:48.973Z,88.64
2017-09-20T08:43:49.281Z,88.83
2017-09-20T08:44:49.275Z,88.59
2017-09-20T08:45:48.953Z,88.97
2017-09-20T08:46:49.261Z,88.59
2017-09-20T08:47:49.255Z,88.87
2017-09-20T08:48:49.248Z,88.11
2017-09-20T08:49:49.245Z,88.2
2017-09-20T08:50:49.239Z,88.4
2017-09-20T08:51:49.230Z,88.59
2017-09-20T08:52:49.060Z,87.92
2017-09-20T08:53:49.219Z,87.82
2017-09-20T08:54:49.213Z,87.25
2017-09-20T08:55:49.208Z,87.44
2017-09-20T08:56:48.890Z,87.63
2017-09-20T08:57:48.889Z,87.44
2017-09-20T08:58:48.875Z,87.44
2017-09-20T08:59:49.194Z,87.35
2017-09-20T09:00:48.863Z,87.68
2017-09-20T09:01:49.172Z,86.63
2017-09-20T09:02:49.164Z,86.53
2017-09-20T09:03:49.158Z,86.34
2017-09-20T09:04:48.839Z,86.34
2017-09-20T09:05:49.150Z,86.34
2017-09-20T09:06:49.138Z,85.96
2017-09-20T09:07:48.921Z,86.05
2017-09-20T09:08:48.816Z,85.77
2017-09-20T09:09:48.807Z,85.58
2017-09-20T09:10:48.800Z,85.29
2017-09-20T09:11:49.116Z,85.48
2017-09-20T09:12:48.889Z,85.82
2017-09-20T09:13:49.097Z,85.1
2017-09-20T09:14:49.090Z,85.67
2017-09-20T09:15:49.084Z,85.58
2017-09-20T09:16:48.770Z,85.86
2017-09-20T09:17:48.869Z,86.2
2017-09-20T09:18:49.066Z,86.3
2017-09-20T09:19:48.745Z,86.77
2017-09-20T09:20:48.739Z,86.96
2017-09-20T09:21:48.735Z,86.96
2017-09-20T09:22:48.729Z,86.96
2017-09-20T09:23:48.722Z,86.87
2017-09-20T09:24:49.027Z,86.87
2017-09-20T09:25:48.709Z,86.01
2017-09-20T09:26:48.703Z,85.72
2017-09-20T09:27:49.009Z,85.53
2017-09-20T09:28:48.691Z,85.63
2017-09-20T09:29:48.685Z,85.72
2017-09-20T09:30:48.680Z,83.72
2017-09-20T09:31:48.988Z,84.1
2017-09-20T09:32:48.984Z,84.29
2017-09-20T09:33:48.979Z,84.39
2017-09-20T09:34:48.656Z,84.2
2017-09-20T09:35:48.963Z,83.34
2017-09-20T09:36:48.642Z,83.91
2017-09-20T09:37:48.637Z,84.39
2017-09-20T09:38:48.630Z,84.29
2017-09-20T09:39:48.937Z,84.1
2017-09-20T09:40:48.933Z,84.48
2017-09-20T09:41:48.611Z,84.48
2017-09-20T09:42:48.919Z,84.52
2017-09-20T09:43:48.600Z,84.23
2017-09-20T09:44:48.694Z,83.86
2017-09-20T09:45:48.902Z,82.81
2017-09-20T09:46:48.895Z,82.81
2017-09-20T09:47:48.576Z,82.04
2017-09-20T09:48:48.570Z,81.85
2017-09-20T09:49:48.663Z,80.8
2017-09-20T09:50:48.973Z,80.8
2017-09-20T09:51:48.552Z,80.32
2017-09-20T09:52:48.547Z,80.61
2017-09-20T09:53:48.539Z,79.85
2017-09-20T09:54:48.946Z,79.85
2017-09-20T09:55:48.526Z,79.94
2017-09-20T09:56:48.671Z,80.22
2017-09-20T09:57:48.827Z,80.32
2017-09-20T09:58:48.511Z,80.32
2017-09-20T09:59:48.819Z,80.36
2017-09-20T10:00:48.816Z,80.65
2017-09-20T10:01:48.490Z,80.27
2017-09-20T10:02:48.799Z,79.98
2017-09-20T10:03:48.793Z,79.41
2017-09-20T10:04:48.788Z,79.6
2017-09-20T10:05:48.785Z,79.56
2017-09-20T10:06:48.777Z,79.88
2017-09-20T10:07:48.456Z,80.46
2017-09-20T10:08:48.763Z,80.46
2017-09-20T10:09:48.757Z,80.55
2017-09-20T10:10:48.537Z,80.27
2017-09-20T10:11:48.746Z,80.36
2017-09-20T10:12:48.743Z,80.46
2017-09-20T10:13:48.735Z,80.36
2017-09-20T10:14:48.415Z,80.84
2017-09-20T10:15:48.723Z,80.65
2017-09-20T10:16:48.715Z,81.13
2017-09-20T10:17:48.719Z,80.93
2017-09-20T10:18:48.711Z,80.36
2017-09-20T10:19:48.699Z,80.46
2017-09-20T10:20:48.377Z,79.98
2017-09-20T10:21:48.374Z,80.27
2017-09-20T10:22:48.465Z,80.07
2017-09-20T10:23:48.360Z,80.84
2017-09-20T10:24:48.352Z,80.93
2017-09-20T10:25:48.664Z,80.36
2017-09-20T10:26:48.655Z,79.98
2017-09-20T10:27:48.751Z,79.98
2017-09-20T10:28:48.645Z,79.88
2017-09-20T10:29:48.475Z,79.02
2017-09-20T10:30:48.634Z,78.74
2017-09-20T10:31:48.628Z,78.83
2017-09-20T10:32:48.308Z,78.16
2017-09-20T10:33:48.302Z,77.87
2017-09-20T10:34:48.714Z,78.45
2017-09-20T10:35:48.605Z,78.16
2017-09-20T10:36:48.285Z,77.78
2017-09-20T10:37:48.595Z,77.4
2017-09-20T10:38:48.273Z,77.44
2017-09-20T10:39:48.266Z,77.3
2017-09-20T10:40:48.573Z,77.63
2017-09-20T10:41:48.574Z,77.59
2017-09-20T10:42:48.563Z,76.67
2017-09-20T10:43:48.556Z,76.96
2017-09-20T10:44:48.234Z,76.67
2017-09-20T10:45:48.545Z,76.57
2017-09-20T10:46:48.539Z,76.1
2017-09-20T10:47:48.318Z,75.81
2017-09-20T10:48:48.526Z,76.29
2017-09-20T10:49:48.305Z,75.71
2017-09-20T10:50:48.199Z,75.24
2017-09-20T10:51:48.510Z,75.43
2017-09-20T10:52:48.187Z,75.66
2017-09-20T10:53:48.182Z,75.27
2017-09-20T10:54:48.178Z,75.66
2017-09-20T10:55:48.584Z,76.14
2017-09-20T10:56:48.518Z,76.23
2017-09-20T10:57:48.474Z,76.42
2017-09-20T10:58:48.469Z,77.04
2017-09-20T10:59:48.462Z,77.48
2017-09-20T11:00:48.458Z,77.76
2017-09-20T11:01:48.139Z,78.53
2017-09-20T11:02:48.129Z,78.43
2017-09-20T11:03:48.440Z,78.72
2017-09-20T11:04:48.118Z,79.39
2017-09-20T11:05:48.427Z,80.16
2017-09-20T11:06:48.104Z,79.96
2017-09-20T11:07:48.514Z,79.68
2017-09-20T11:08:48.411Z,79.39
2017-09-20T11:09:48.407Z,79.39
2017-09-20T11:10:48.402Z,79.29
2017-09-20T11:11:48.391Z,79.39
2017-09-20T11:12:48.391Z,80.06
2017-09-20T11:13:48.166Z,80.06
2017-09-20T11:14:48.061Z,80.54
2017-09-20T11:15:48.053Z,80.44
2017-09-20T11:16:48.362Z,80.35
2017-09-20T11:17:48.044Z,80.35
2017-09-20T11:18:48.038Z,81.02
2017-09-20T11:19:48.344Z,81.21
2017-09-20T11:20:48.340Z,80.63
2017-09-20T11:21:48.332Z,81.3
2017-09-20T11:22:48.326Z,81.3
2017-09-20T11:23:48.321Z,81.4
2017-09-20T11:24:48.318Z,80.92
2017-09-20T11:25:48.314Z,80.44
2017-09-20T11:26:48.307Z,80.35
2017-09-20T11:27:47.985Z,80.54
2017-09-20T11:28:48.079Z,80.82
2017-09-20T11:29:47.972Z,81.3
2017-09-20T11:30:48.067Z,81.21
2017-09-20T11:31:47.971Z,80.63
2017-09-20T11:32:48.273Z,80.67
2017-09-20T11:33:48.264Z,80.82
2017-09-20T11:34:48.257Z,80.82
2017-09-20T11:35:48.253Z,80.44
2017-09-20T11:36:48.246Z,80.44
2017-09-20T11:37:48.243Z,81.4
2017-09-20T11:38:47.922Z,81.4
2017-09-20T11:39:48.229Z,81.21
2017-09-20T11:40:47.912Z,81.11
2017-09-20T11:41:47.906Z,81.11
2017-09-20T11:42:47.998Z,81.49
2017-09-20T11:43:48.211Z,81.55
2017-09-20T11:44:48.207Z,81.55
2017-09-20T11:45:48.298Z,82.31
2017-09-20T11:46:47.873Z,83.08
2017-09-20T11:47:48.186Z,82.79
2017-09-20T11:48:47.865Z,83.37
2017-09-20T11:49:48.174Z,83.94
2017-09-20T11:50:48.171Z,84.13
2017-09-20T11:51:48.161Z,84.61
2017-09-20T11:52:48.255Z,84.99
2017-09-20T11:53:48.147Z,84.89
2017-09-20T11:54:47.827Z,84.89
2017-09-20T11:55:48.138Z,85.47
2017-09-20T11:56:47.817Z,85.18
2017-09-20T11:57:48.275Z,85.85
2017-09-20T11:58:48.120Z,86.23
2017-09-20T11:59:48.214Z,86.1
2017-09-20T12:00:47.794Z,86.29
2017-09-20T12:01:47.788Z,86.19
2017-09-20T12:02:47.783Z,86.96
2017-09-20T12:03:47.775Z,86.67
2017-09-20T12:04:47.772Z,87.05
2017-09-20T12:05:47.765Z,87.05
2017-09-20T12:06:47.759Z,86.9
2017-09-20T12:07:47.761Z,87.05
2017-09-20T12:08:47.748Z,86.96
2017-09-20T12:09:47.742Z,86.86
2017-09-20T12:10:48.052Z,86.38
2017-09-20T12:11:47.730Z,86.47
2017-09-20T12:12:47.724Z,86.76
2017-09-20T12:13:47.719Z,86.67
2017-09-20T12:14:48.031Z,86.57
2017-09-20T12:15:48.022Z,86
2017-09-20T12:16:47.702Z,85.52
2017-09-20T12:17:48.010Z,85.24
2017-09-20T12:18:47.687Z,85.81
2017-09-20T12:19:47.684Z,84.66
2017-09-20T12:20:48.090Z,83.61
2017-09-20T12:21:47.672Z,83.51
2017-09-20T12:22:47.983Z,83.33
2017-09-20T12:23:47.759Z,82.84
2017-09-20T12:24:47.655Z,82.75
2017-09-20T12:25:47.662Z,82.37
2017-09-20T12:26:47.645Z,82.37
2017-09-20T12:27:47.952Z,82.75
2017-09-20T12:28:47.732Z,83.13
2017-09-20T12:29:47.940Z,83.33
2017-09-20T12:30:47.933Z,83.13
2017-09-20T12:31:47.928Z,82.56
2017-09-20T12:32:47.609Z,83.23
2017-09-20T12:33:47.916Z,83.61
2017-09-20T12:34:47.913Z,83.7
2017-09-20T12:35:47.691Z,83.8
2017-09-20T12:36:47.900Z,83.23
2017-09-20T12:37:47.894Z,83.23
2017-09-20T12:38:47.581Z,82.75
2017-09-20T12:39:47.882Z,82.37
2017-09-20T12:40:47.879Z,82.37
2017-09-20T12:41:47.871Z,82.18
2017-09-20T12:42:47.864Z,82.08
2017-09-20T12:43:47.545Z,82.37
2017-09-20T12:44:47.537Z,82.75
2017-09-20T12:45:47.533Z,82.18
2017-09-20T12:46:47.842Z,82.56
2017-09-20T12:47:47.522Z,82.75
2017-09-20T12:48:47.514Z,82.75
2017-09-20T12:49:47.823Z,83.33
2017-09-20T12:50:47.655Z,82.84
2017-09-20T12:51:47.497Z,82.75
2017-09-20T12:52:47.492Z,82.75
2017-09-20T12:53:47.899Z,82.94
2017-09-20T12:54:47.801Z,82.46
2017-09-20T12:55:47.939Z,81.99
2017-09-20T12:56:47.784Z,81.99
2017-09-20T12:57:47.783Z,81.07
2017-09-20T12:58:47.772Z,81.13
2017-09-20T12:59:47.770Z,81.51
2017-09-20T13:00:47.760Z,81.84
2017-09-20T13:01:47.754Z,81.07
2017-09-20T13:02:47.435Z,81.65
2017-09-20T13:03:47.429Z,82.03
2017-09-20T13:04:47.838Z,80.88
2017-09-20T13:05:47.831Z,81.07
2017-09-20T13:06:47.413Z,80.88
2017-09-20T13:07:47.405Z,80.98
2017-09-20T13:08:47.714Z,81.07
2017-09-20T13:09:47.396Z,80.59
2017-09-20T13:10:47.705Z,80.02
2017-09-20T13:11:47.696Z,79.83
2017-09-20T13:12:47.688Z,79.64
2017-09-20T13:13:47.688Z,78.68
2017-09-20T13:14:47.367Z,79.54
2017-09-20T13:15:47.676Z,79.54
2017-09-20T13:16:47.356Z,79.73
2017-09-20T13:17:47.450Z,79.54
2017-09-20T13:18:47.657Z,79.54
2017-09-20T13:19:47.651Z,79.83
2017-09-20T13:20:47.648Z,79.83
2017-09-20T13:21:47.641Z,79.83
2017-09-20T13:22:47.320Z,79.93
2017-09-20T13:23:47.314Z,79.93
2017-09-20T13:24:47.729Z,79.83
2017-09-20T13:25:47.617Z,80.11
2017-09-20T13:26:47.610Z,79.93
2017-09-20T13:27:47.611Z,80.5
2017-09-20T13:28:47.602Z,80.59
2017-09-20T13:29:47.279Z,79.44
2017-09-20T13:30:47.274Z,79.44
2017-09-20T13:31:47.583Z,79.93
2017-09-20T13:32:47.263Z,79.06
2017-09-20T13:33:47.257Z,79.58
2017-09-20T13:34:47.666Z,79
2017-09-20T13:35:47.247Z,78.43
2017-09-20T13:36:47.554Z,78.43
2017-09-20T13:37:47.331Z,77.95
2017-09-20T13:38:47.230Z,77.38
2017-09-20T13:39:47.537Z,76.81
2017-09-20T13:40:47.532Z,76.71
2017-09-20T13:41:47.526Z,75.95
2017-09-20T13:42:47.206Z,74.99
2017-09-20T13:43:47.198Z,74.04
2017-09-20T13:44:47.195Z,73.65
2017-09-20T13:45:47.189Z,74.04
2017-09-20T13:46:47.184Z,74.51
2017-09-20T13:47:47.177Z,74.7
2017-09-20T13:48:47.172Z,75.18
2017-09-20T13:49:47.483Z,75.37
2017-09-20T13:50:47.164Z,75.56
2017-09-20T13:51:47.467Z,75.37
2017-09-20T13:52:47.149Z,75.7
2017-09-20T13:53:47.456Z,75.47
2017-09-20T13:54:47.452Z,75.37
2017-09-20T13:55:47.131Z,74.45
2017-09-20T13:56:47.441Z,74.45
2017-09-20T13:57:47.537Z,74.26
2017-09-20T13:58:47.434Z,73.79
2017-09-20T13:59:47.109Z,74.07
2017-09-20T14:00:47.113Z,73.69
2017-09-20T14:01:47.410Z,73.15
2017-09-20T14:02:47.093Z,73.34